Flight Track Log - Related Links

Times and Time Zones

All times are in EDT time to prevent confusion due to time zone crossing. See the RAX44 flight status page for this flight to view local times or setup timezone preferences in your user account.

Time Position Orientation Groundspeed Altitude Reporting Facility
EDT Latitude Longitude Course Direction KTS MPH feet Rate Location/Type
Fri 03:28:05 PM 34.9031 -81.9189 360° North 234 269 5,700  Level Atlanta Center
Fri 03:29:05 PM 34.9678 -81.9325 350° North 268 308 8,200 2,600 Climbing Atlanta Center
Fri 03:30:05 PM 35.0411 -81.9383 356° North 275 316 10,900 2,300 Climbing Atlanta Center
Fri 03:31:05 PM 35.1244 -81.9336 North 282 325 12,800 2,150 Climbing Atlanta Center
Fri 03:32:00 PM 35.3598 -81.9333 North  Level FlightAware Approximate
Fri 03:32:05 PM 35.2122 -81.9442 354° North 303 349 15,200  Level Atlanta Center
Fri 03:33:00 PM 35.4552 -81.9333 360° North  Level FlightAware Approximate
Fri 03:33:05 PM 35.3039 -81.9442 360° North 321 369 17,300  Level Atlanta Center
Fri 03:34:05 PM 35.4064 -81.9469 359° North 328 377 19,000 1,800 Climbing Atlanta Center
Fri 03:35:05 PM 35.5044 -81.9469 360° North 339 390 20,900 1,900 Climbing Atlanta Center
Fri 03:36:05 PM 35.6064 -81.9442 North 351 404 22,800 2,000 Climbing Atlanta Center
Fri 03:37:05 PM 35.7067 -81.9494 358° North 357 411 24,900 1,900 Climbing Atlanta Center
Fri 03:38:05 PM 35.8089 -81.9519 359° North 363 418 26,600 1,550 Climbing Atlanta Center
Fri 03:39:05 PM 35.9153 -81.9467 North 377 434 28,000 1,200 Climbing Atlanta Center
Fri 03:40:05 PM 36.0236 -81.9411 North 384 442 29,000 500 Climbing Atlanta Center
Fri 03:41:05 PM 36.1219 -81.9542 354° North 384 442 29,000 650 Level Atlanta Center
Fri 03:42:05 PM 36.2408 -81.9508 North 402 463 30,300 1,700 Climbing Atlanta Center
Fri 03:43:05 PM 36.3575 -81.9481 North 402 463 32,400 2,000 Climbing Atlanta Center
Fri 03:44:05 PM 36.4639 -81.9503 359° North 392 451 34,300 1,750 Climbing Atlanta Center
Fri 03:45:05 PM 36.5642 -81.9581 356° North 369 425 35,900 1,402 Climbing Atlanta Center
Fri 03:47:09 PM 36.7561 -81.9639 359° North 349 402 38,600 1,065 Climbing Indianapolis Center
Fri 03:48:11 PM 36.8561 -81.9708 357° North 355 409 39,200 581 Climbing Indianapolis Center
Fri 03:49:13 PM 36.9714 -81.9789 357° North 356 410 39,800 387 Climbing Indianapolis Center
Fri 03:50:15 PM 37.0753 -81.9783 360° North 370 426 40,000 97 Climbing Indianapolis Center
Fri 03:51:17 PM 37.1811 -81.9825 358° North 379 436 40,000  Level Indianapolis Center
Fri 03:52:19 PM 37.2906 -81.9908 357° North 391 450 40,000  Level Indianapolis Center
Fri 03:53:21 PM 37.4011 -81.9936 359° North 396 456 40,000  Level Indianapolis Center
Fri 03:54:23 PM 37.5300 -81.9969 359° North 396 456 40,000  Level Indianapolis Center
Fri 03:55:25 PM 37.6406 -82.0067 356° North 395 455 40,000  Level Indianapolis Center
Fri 03:56:27 PM 37.7517 -82.0131 357° North 398 458 40,000  Level Indianapolis Center
Fri 03:57:29 PM 37.8525 -82.0083 North 400 460 40,000  Level Indianapolis Center
Fri 03:58:31 PM 37.9858 -82.0044 North 399 459 40,000  Level Indianapolis Center
Fri 03:59:33 PM 38.0950 -82.0050 360° North 391 450 40,000  Level Indianapolis Center
Fri 04:00:35 PM 38.2031 -82.0042 360° North 390 449 40,000  Level Indianapolis Center
Fri 04:01:37 PM 38.3122 -81.9864 North 394 453 40,000  Level Indianapolis Center
Fri 04:02:39 PM 38.4189 -81.9994 355° North 384 442 40,000  Level Indianapolis Center
Fri 04:03:41 PM 38.5256 -82.0156 353° North 381 438 40,000 -48 Level Indianapolis Center
Fri 04:04:43 PM 38.6333 -82.0250 356° North 385 443 39,900  Descending Indianapolis Center
Fri 04:05:46 PM 38.7647 -82.0325 357° North 389 448 40,000 48 Climbing Indianapolis Center
Fri 04:06:48 PM 38.8717 -82.0433 355° North 384 442 40,000  Level Indianapolis Center
Fri 04:07:50 PM 38.9789 -82.0567 354° North 384 442 40,000  Level Indianapolis Center
Fri 04:08:52 PM 39.0881 -82.0594 359° North 388 447 40,000  Level Indianapolis Center
Fri 04:09:54 PM 39.1964 -82.0625 359° North 388 447 40,000  Level Indianapolis Center
Fri 04:10:56 PM 39.3050 -82.0714 356° North 390 449 40,000 -242 Level Indianapolis Center
Fri 04:11:58 PM 39.4153 -82.0756 358° North 394 453 39,500 -581 Descending Indianapolis Center
Fri 04:13:00 PM 39.5297 -82.0767 360° North 406 467 38,800 -629 Descending Indianapolis Center
Fri 04:14:02 PM 39.6636 -82.0822 358° North 400 460 38,200 -1,016 Descending Indianapolis Center
Fri 04:15:04 PM 39.7683 -82.0814 360° North 399 459 36,700 -1,548 Descending Indianapolis Center
Fri 04:16:06 PM 39.8772 -82.0706 North 388 447 35,000 -1,210 Descending Indianapolis Center
Fri 04:17:08 PM 39.9881 -82.0656 North 396 456 34,200 -484 Descending Indianapolis Center
Fri 04:18:10 PM 40.1222 -82.0697 359° North 408 470 34,000 -387 Descending Indianapolis Center
Fri 04:19:12 PM 40.2392 -82.0728 359° North 416 479 33,400 -1,210 Descending Indianapolis Center
Fri 04:20:14 PM 40.3525 -82.0744 359° North 408 470 31,500 -1,829 Descending Indianapolis Center
Fri 04:20:34 PM 40.3950 -82.0769 357° North 401 461 30,900 -1,125 Descending Cleveland Center
Fri 04:21:34 PM 40.5033 -82.0878 356° North 401 461 30,000 -450 Descending Cleveland Center
Fri 04:22:34 PM 40.6136 -82.0903 359° North 396 456 30,000 -350 Level Cleveland Center
Fri 04:23:34 PM 40.7283 -82.0928 359° North 402 463 29,300 -958 Descending Cleveland Center
Fri 04:24:33 PM 40.8389 -82.0981 358° North 402 463 28,100 -1,160 Descending Cleveland Center
Fri 04:25:33 PM 40.9492 -82.1089 356° North 402 463 27,000 -1,200 Descending Cleveland Center
Fri 04:26:33 PM 41.0594 -82.1197 356° North 397 457 25,700 -1,190 Descending Cleveland Center
Fri 04:27:34 PM 41.1575 -82.1275 357° North 397 457 24,600 -1,150 Descending Cleveland Center
Fri 04:28:33 PM 41.2617 -82.1300 359° North 387 445 23,400 -1,500 Descending Cleveland Center
Fri 04:29:34 PM 41.3700 -82.1353 358° North 382 440 21,600 -1,700 Descending Cleveland Center
Fri 04:30:33 PM 41.4711 -82.2014 334° Northwest 369 425 20,000 -1,311 Descending Cleveland Center
Fri 04:31:33 PM 41.5469 -82.2867 320° Northwest 358 412 19,000 -1,091 Descending Cleveland Center
Fri 04:32:12 PM 41.5942 -82.3322 324° Northwest 356 410 18,200 -1,200 Descending Cleveland Center
Fri 04:32:33 PM 41.6314 -82.3639 328° Northwest 358 412 17,800 -980 Descending Cleveland Center
Fri 04:33:01 PM 41.6683 -82.3956 327° Northwest 358 412 17,400 -1,400 Descending Cleveland Center
Fri 04:33:33 PM 41.7094 -82.4356 324° Northwest 352 405 16,400 -2,754 Descending Cleveland Center
Fri 04:34:02 PM 41.7464 -82.4672 327° Northwest 337 388 14,600 -3,500 Descending Cleveland Center
Fri 04:34:33 PM 41.7811 -82.5044 321° Northwest 339 390 12,900 -3,491 Descending Cleveland Center
Fri 04:34:57 PM 41.8100 -82.5306 326° Northwest 309 356 11,400 -2,900 Descending Cleveland Center
Fri 04:35:33 PM 41.8531 -82.5681 327° Northwest 321 369 10,000 -1,377 Descending Cleveland Center
Fri 04:35:58 PM 41.8839 -82.5969 325° Northwest 313 360 10,000 -100 Level Cleveland Center
Fri 04:36:33 PM 41.9294 -82.6178 341° North 310 357 9,900 -98 Descending Cleveland Center
Fri 04:36:59 PM 41.9647 -82.6217 355° North 268 308 9,900 -500 Level Cleveland Center
Fri 04:37:33 PM 42.0022 -82.6286 352° North 284 327 9,400 -984 Descending Cleveland Center
Fri 04:38:00 PM 42.0353 -82.6408 345° North 258 297 8,900 -900 Descending Cleveland Center
Fri 04:38:33 PM 42.0683 -82.6614 335° Northwest 265 305 8,500 -1,000 Descending Cleveland Center
Fri 04:39:00 PM 42.0992 -82.6764 340° North 258 297 7,900 -1,100 Descending Cleveland Center
Fri 04:39:33 PM 42.1344 -82.6972 336° Northwest 260 299 7,400 -1,071 Descending Cleveland Center
Fri 04:39:56 PM 42.1611 -82.7147 334° Northwest 260 299 6,900 -1,300 Descending Cleveland Center
Fri 04:40:33 PM 42.2022 -82.7386 337° Northwest 260 299 6,100 -1,300 Descending Cleveland Center
Fri 04:40:56 PM 42.2292 -82.7508 341° North 264 304 5,600 -1,200 Descending Cleveland Center
Fri 04:41:33 PM 42.2728 -82.7664 345° North 260 299 4,900 -1,164 Descending Cleveland Center
Fri 04:42:03 PM 42.3075 -82.7956 328° Northwest 270 311 4,300 -593 Descending Cleveland Center
Fri 04:43:04 PM 42.3692 -82.8483 328° Northwest 266 306 4,000 -197 Descending Cleveland Center
Fri 04:44:05 PM 42.4306 -82.9039 326° Northwest 269 310 3,900 -45 Descending Cleveland Center
Fri 04:45:18 PM 42.5061 -82.9744 325° Northwest 269 310 3,900  Level Cleveland Center
Fri 04:46:25 PM 42.5736 -83.0361 326° Northwest 247 284 3,900 -326 Level Cleveland Center
Fri 04:47:27 PM 42.6181 -83.1028 312° West 243 280 3,200 -513 Descending Cleveland Center
Fri 04:48:22 PM 42.6519 -83.1747 303° West 246 283 2,900 -209 Descending Cleveland Center
Fri 04:49:22 PM 42.6625 -83.2569 280° West 223 257 2,800 -298 Descending Cleveland Center
Fri 04:50:23 PM 42.6672 -83.3278 275° West 171 197 2,300 -656 Descending Cleveland Center
Fri 04:51:30 PM 42.6656 -83.3900 268° West 145 167 1,400 -806 Descending Cleveland Center

Login

Don't have an account? Register now (free) for customized features, flight alerts, and more!